sensor_id;sensor_type;location;lat;lon;timestamp;pressure;altitude;pressure_sealevel;temperature;humidity
26657;BME280;14279;50.010;8.260;2023-01-27T00:01:03;100906.44;;;2.69;86.45
26657;BME280;14279;50.010;8.260;2023-01-27T00:03:29;100902.97;;;2.72;86.45
26657;BME280;14279;50.010;8.260;2023-01-27T00:05:54;100904.66;;;2.76;86.47
26657;BME280;14279;50.010;8.260;2023-01-27T00:08:20;100914.16;;;2.65;86.25
26657;BME280;14279;50.010;8.260;2023-01-27T00:10:45;100909.84;;;2.72;86.67
26657;BME280;14279;50.010;8.260;2023-01-27T00:13:12;100913.28;;;2.74;87.21
26657;BME280;14279;50.010;8.260;2023-01-27T00:15:53;100915.78;;;2.81;86.54
26657;BME280;14279;50.010;8.260;2023-01-27T00:18:19;100913.22;;;2.81;86.28
26657;BME280;14279;50.010;8.260;2023-01-27T00:20:46;100898.56;;;2.93;86.24
26657;BME280;14279;50.010;8.260;2023-01-27T00:23:30;100906.41;;;2.74;86.24
26657;BME280;14279;50.010;8.260;2023-01-27T00:26:16;100908.91;;;2.82;86.66
26657;BME280;14279;50.010;8.260;2023-01-27T00:28:42;100908.91;;;2.85;86.24
26657;BME280;14279;50.010;8.260;2023-01-27T00:31:10;100907.16;;;2.90;86.10
26657;BME280;14279;50.010;8.260;2023-01-27T00:33:54;100891.72;;;2.93;86.08
26657;BME280;14279;50.010;8.260;2023-01-27T00:36:21;100900.28;;;2.98;85.56
26657;BME280;14279;50.010;8.260;2023-01-27T00:38:46;100898.56;;;2.93;85.96
26657;BME280;14279;50.010;8.260;2023-01-27T00:41:12;100902.00;;;2.92;85.99
26657;BME280;14279;50.010;8.260;2023-01-27T00:43:47;100900.31;;;2.89;86.14
26657;BME280;14279;50.010;8.260;2023-01-27T00:46:13;100900.34;;;2.83;86.15
26657;BME280;14279;50.010;8.260;2023-01-27T00:48:39;100897.75;;;2.86;86.09
26657;BME280;14279;50.010;8.260;2023-01-27T00:51:04;100896.84;;;2.95;85.97
26657;BME280;14279;50.010;8.260;2023-01-27T00:53:30;100891.72;;;2.92;86.29
26657;BME280;14279;50.010;8.260;2023-01-27T00:55:56;100890.03;;;2.86;86.29
26657;BME280;14279;50.010;8.260;2023-01-27T00:58:23;100890.88;;;2.91;86.58
26657;BME280;14279;50.010;8.260;2023-01-27T01:00:48;100895.22;;;2.84;86.29
26657;BME280;14279;50.010;8.260;2023-01-27T01:03:13;100892.59;;;2.92;86.35
26657;BME280;14279;50.010;8.260;2023-01-27T01:05:39;100899.44;;;2.93;86.53
26657;BME280;14279;50.010;8.260;2023-01-27T01:08:04;100898.56;;;2.97;86.23
26657;BME280;14279;50.010;8.260;2023-01-27T01:10:29;100901.13;;;3.00;86.81
26657;BME280;14279;50.010;8.260;2023-01-27T01:12:54;100898.53;;;2.99;86.72
26657;BME280;14279;50.010;8.260;2023-01-27T01:15:20;100901.16;;;2.91;86.57
26657;BME280;14279;50.010;8.260;2023-01-27T01:17:45;100900.28;;;2.97;86.31
26657;BME280;14279;50.010;8.260;2023-01-27T01:20:11;100915.66;;;3.01;86.18
26657;BME280;14279;50.010;8.260;2023-01-27T01:22:36;100910.53;;;3.01;85.99
26657;BME280;14279;50.010;8.260;2023-01-27T01:25:01;100913.94;;;3.07;86.15
26657;BME280;14279;50.010;8.260;2023-01-27T01:27:27;100908.84;;;2.96;86.05
26657;BME280;14279;50.010;8.260;2023-01-27T01:29:59;100909.72;;;2.93;85.89
26657;BME280;14279;50.010;8.260;2023-01-27T01:32:30;100917.44;;;2.95;85.64
26657;BME280;14279;50.010;8.260;2023-01-27T01:34:57;100912.22;;;3.03;85.94
26657;BME280;14279;50.010;8.260;2023-01-27T01:37:29;100906.25;;;2.99;86.10
26657;BME280;14279;50.010;8.260;2023-01-27T01:39:55;100913.94;;;3.05;85.30
26657;BME280;14279;50.010;8.260;2023-01-27T01:42:20;100918.19;;;3.11;85.15
26657;BME280;14279;50.010;8.260;2023-01-27T01:44:52;100911.31;;;3.16;85.56
26657;BME280;14279;50.010;8.260;2023-01-27T01:47:35;100910.41;;;3.19;85.10
26657;BME280;14279;50.010;8.260;2023-01-27T01:50:01;100905.25;;;3.22;85.04
26657;BME280;14279;50.010;8.260;2023-01-27T01:52:26;100909.63;;;3.12;84.86
26657;BME280;14279;50.010;8.260;2023-01-27T01:54:53;100911.31;;;3.14;85.01
26657;BME280;14279;50.010;8.260;2023-01-27T01:57:22;100909.63;;;3.09;84.96
26657;BME280;14279;50.010;8.260;2023-01-27T01:59:53;100907.00;;;3.16;85.21
26657;BME280;14279;50.010;8.260;2023-01-27T02:02:20;100907.84;;;3.20;85.10
26657;BME280;14279;50.010;8.260;2023-01-27T02:04:53;100906.13;;;3.22;85.09
26657;BME280;14279;50.010;8.260;2023-01-27T02:07:24;100906.03;;;3.31;84.86
26657;BME280;14279;50.010;8.260;2023-01-27T02:09:53;100905.22;;;3.26;84.54
26657;BME280;14279;50.010;8.260;2023-01-27T02:12:20;100900.00;;;3.37;83.70
26657;BME280;14279;50.010;8.260;2023-01-27T02:14:45;100896.56;;;3.37;83.56
26657;BME280;14279;50.010;8.260;2023-01-27T02:17:11;100903.31;;;3.50;83.26
26657;BME280;14279;50.010;8.260;2023-01-27T02:22:25;100899.19;;;3.30;83.79
26657;BME280;14279;50.010;8.260;2023-01-27T02:24:58;100894.91;;;3.26;84.24
26657;BME280;14279;50.010;8.260;2023-01-27T02:30:32;100899.13;;;3.38;83.43
26657;BME280;14279;50.010;8.260;2023-01-27T02:33:00;100902.53;;;3.40;83.74
26657;BME280;14279;50.010;8.260;2023-01-27T02:36:00;100899.09;;;3.46;83.83
26657;BME280;14279;50.010;8.260;2023-01-27T02:38:32;100903.44;;;3.35;84.15
26657;BME280;14279;50.010;8.260;2023-01-27T02:41:02;100901.75;;;3.32;84.34
26657;BME280;14279;50.010;8.260;2023-01-27T02:43:29;100899.94;;;3.43;83.97
26657;BME280;14279;50.010;8.260;2023-01-27T02:45:54;100908.44;;;3.53;83.60
26657;BME280;14279;50.010;8.260;2023-01-27T02:48:19;100906.00;;;3.41;83.77
26657;BME280;14279;50.010;8.260;2023-01-27T02:50:45;100910.22;;;3.46;84.29
26657;BME280;14279;50.010;8.260;2023-01-27T02:53:10;100911.03;;;3.50;84.11
26657;BME280;14279;50.010;8.260;2023-01-27T02:55:36;100913.59;;;3.58;83.39
26657;BME280;14279;50.010;8.260;2023-01-27T02:58:01;100908.53;;;3.42;84.35
26657;BME280;14279;50.010;8.260;2023-01-27T03:00:27;100909.41;;;3.41;84.60
26657;BME280;14279;50.010;8.260;2023-01-27T03:02:53;100908.63;;;3.31;84.69
26657;BME280;14279;50.010;8.260;2023-01-27T03:05:18;100906.94;;;3.27;84.67
26657;BME280;14279;50.010;8.260;2023-01-27T03:07:43;100903.47;;;3.31;85.23
26657;BME280;14279;50.010;8.260;2023-01-27T03:10:09;100908.56;;;3.39;84.94
26657;BME280;14279;50.010;8.260;2023-01-27T03:12:34;100907.63;;;3.50;84.40
26657;BME280;14279;50.010;8.260;2023-01-27T03:14:59;100911.91;;;3.51;83.81
26657;BME280;14279;50.010;8.260;2023-01-27T03:17:43;100912.81;;;3.48;83.87
26657;BME280;14279;50.010;8.260;2023-01-27T03:20:27;100915.31;;;3.54;83.97
26657;BME280;14279;50.010;8.260;2023-01-27T03:22:52;100915.31;;;3.56;83.32
26657;BME280;14279;50.010;8.260;2023-01-27T03:25:18;100923.84;;;3.59;83.01
26657;BME280;14279;50.010;8.260;2023-01-27T03:27:43;100926.34;;;3.67;82.60
26657;BME280;14279;50.010;8.260;2023-01-27T03:30:09;100922.91;;;3.70;82.51
26657;BME280;14279;50.010;8.260;2023-01-27T03:32:35;100928.19;;;3.54;82.33
26657;BME280;14279;50.010;8.260;2023-01-27T03:35:00;100919.63;;;3.49;81.93
26657;BME280;14279;50.010;8.260;2023-01-27T03:37:27;100924.75;;;3.54;81.92
26657;BME280;14279;50.010;8.260;2023-01-27T03:40:12;100929.03;;;3.55;81.42
26657;BME280;14279;50.010;8.260;2023-01-27T03:42:57;100923.09;;;3.48;81.63
26657;BME280;14279;50.010;8.260;2023-01-27T03:45:44;100922.22;;;3.48;81.42
26657;BME280;14279;50.010;8.260;2023-01-27T03:48:30;100927.41;;;3.41;81.16
26657;BME280;14279;50.010;8.260;2023-01-27T03:50:57;100921.34;;;3.50;81.25
26657;BME280;14279;50.010;8.260;2023-01-27T03:53:22;100924.88;;;3.40;80.92
26657;BME280;14279;50.010;8.260;2023-01-27T03:55:47;100924.81;;;3.48;80.92
26657;BME280;14279;50.010;8.260;2023-01-27T03:58:22;100923.06;;;3.53;80.50
26657;BME280;14279;50.010;8.260;2023-01-27T04:00:56;100932.44;;;3.58;80.79
26657;BME280;14279;50.010;8.260;2023-01-27T04:03:23;100925.53;;;3.64;80.68
26657;BME280;14279;50.010;8.260;2023-01-27T04:06:09;100922.03;;;3.72;80.45
26657;BME280;14279;50.010;8.260;2023-01-27T04:08:54;100926.44;;;3.59;80.76
26657;BME280;14279;50.010;8.260;2023-01-27T04:11:19;100927.28;;;3.61;80.56
26657;BME280;14279;50.010;8.260;2023-01-27T04:14:05;100925.53;;;3.62;80.00
26657;BME280;14279;50.010;8.260;2023-01-27T04:16:31;100922.13;;;3.58;80.22
26657;BME280;14279;50.010;8.260;2023-01-27T04:18:56;100933.44;;;3.40;80.01
26657;BME280;14279;50.010;8.260;2023-01-27T04:21:22;100926.56;;;3.44;80.14
26657;BME280;14279;50.010;8.260;2023-01-27T04:23:49;100930.72;;;3.57;80.57
26657;BME280;14279;50.010;8.260;2023-01-27T04:26:15;100931.75;;;3.35;80.29
26657;BME280;14279;50.010;8.260;2023-01-27T04:28:40;100936.03;;;3.39;80.40
26657;BME280;14279;50.010;8.260;2023-01-27T04:31:05;100935.94;;;3.50;79.78
26657;BME280;14279;50.010;8.260;2023-01-27T04:33:31;100932.59;;;3.38;80.25
26657;BME280;14279;50.010;8.260;2023-01-27T04:35:56;100930.94;;;3.31;80.85
26657;BME280;14279;50.010;8.260;2023-01-27T04:38:21;100928.44;;;3.20;81.19
26657;BME280;14279;50.010;8.260;2023-01-27T04:40:47;100931.88;;;3.19;81.52
26657;BME280;14279;50.010;8.260;2023-01-27T04:43:12;100931.69;;;3.42;80.81
26657;BME280;14279;50.010;8.260;2023-01-27T04:45:38;100936.00;;;3.45;81.08
26657;BME280;14279;50.010;8.260;2023-01-27T04:48:03;100937.69;;;3.48;80.40
26657;BME280;14279;50.010;8.260;2023-01-27T04:50:30;100940.19;;;3.52;79.87
26657;BME280;14279;50.010;8.260;2023-01-27T04:52:56;100937.72;;;3.38;80.49
26657;BME280;14279;50.010;8.260;2023-01-27T04:55:21;100934.16;;;3.56;79.63
26657;BME280;14279;50.010;8.260;2023-01-27T04:57:46;100928.34;;;3.34;80.52
26657;BME280;14279;50.010;8.260;2023-01-27T05:00:12;100941.91;;;3.56;79.55
26657;BME280;14279;50.010;8.260;2023-01-27T05:02:37;100937.56;;;3.61;79.52
26657;BME280;14279;50.010;8.260;2023-01-27T05:05:02;100939.47;;;3.35;79.34
26657;BME280;14279;50.010;8.260;2023-01-27T05:07:29;100941.25;;;3.28;79.54
26657;BME280;14279;50.010;8.260;2023-01-27T05:09:54;100938.66;;;3.26;79.37
26657;BME280;14279;50.010;8.260;2023-01-27T05:12:20;100950.56;;;3.44;79.16
26657;BME280;14279;50.010;8.260;2023-01-27T05:14:45;100948.94;;;3.33;79.24
26657;BME280;14279;50.010;8.260;2023-01-27T05:17:10;100950.50;;;3.54;78.55
26657;BME280;14279;50.010;8.260;2023-01-27T05:19:35;100948.84;;;3.45;79.01
26657;BME280;14279;50.010;8.260;2023-01-27T05:22:01;100955.69;;;3.48;78.99
26657;BME280;14279;50.010;8.260;2023-01-27T05:24:26;100961.59;;;3.62;78.46
26657;BME280;14279;50.010;8.260;2023-01-27T05:26:51;100965.19;;;3.41;78.97
26657;BME280;14279;50.010;8.260;2023-01-27T05:29:18;100958.31;;;3.43;79.03
26657;BME280;14279;50.010;8.260;2023-01-27T05:31:43;100959.97;;;3.49;78.56
26657;BME280;14279;50.010;8.260;2023-01-27T05:34:08;100965.19;;;3.39;78.62
26657;BME280;14279;50.010;8.260;2023-01-27T05:36:33;100966.00;;;3.46;78.83
26657;BME280;14279;50.010;8.260;2023-01-27T05:38:59;100963.44;;;3.41;79.00
26657;BME280;14279;50.010;8.260;2023-01-27T05:41:24;100960.81;;;3.49;78.68
26657;BME280;14279;50.010;8.260;2023-01-27T05:43:51;100973.66;;;3.52;78.55
26657;BME280;14279;50.010;8.260;2023-01-27T05:46:19;100968.50;;;3.57;78.61
26657;BME280;14279;50.010;8.260;2023-01-27T05:48:48;100971.84;;;3.65;77.86
26657;BME280;14279;50.010;8.260;2023-01-27T05:51:14;100973.47;;;3.77;78.02
26657;BME280;14279;50.010;8.260;2023-01-27T05:53:39;100967.44;;;3.81;77.71
26657;BME280;14279;50.010;8.260;2023-01-27T05:56:05;100966.59;;;3.81;77.38
26657;BME280;14279;50.010;8.260;2023-01-27T05:58:32;100981.19;;;3.85;77.32
26657;BME280;14279;50.010;8.260;2023-01-27T06:01:13;100983.69;;;3.91;77.07
26657;BME280;14279;50.010;8.260;2023-01-27T06:03:39;100979.41;;;3.88;77.04
26657;BME280;14279;50.010;8.260;2023-01-27T06:06:05;100975.97;;;3.88;76.76
26657;BME280;14279;50.010;8.260;2023-01-27T06:08:32;100982.03;;;3.84;76.80
26657;BME280;14279;50.010;8.260;2023-01-27T06:10:57;100981.25;;;3.72;77.09
26657;BME280;14279;50.010;8.260;2023-01-27T06:13:23;100980.31;;;3.84;77.01
26657;BME280;14279;50.010;8.260;2023-01-27T06:15:49;100984.59;;;3.82;76.80
26657;BME280;14279;50.010;8.260;2023-01-27T06:18:16;100987.94;;;3.95;76.11
26657;BME280;14279;50.010;8.260;2023-01-27T06:20:42;100988.81;;;3.96;76.13
26657;BME280;14279;50.010;8.260;2023-01-27T06:23:09;100987.06;;;3.96;76.53
26657;BME280;14279;50.010;8.260;2023-01-27T06:25:39;100994.88;;;3.85;76.31
26657;BME280;14279;50.010;8.260;2023-01-27T06:28:05;100996.59;;;3.86;76.36
26657;BME280;14279;50.010;8.260;2023-01-27T06:30:32;100995.63;;;4.00;75.77
26657;BME280;14279;50.010;8.260;2023-01-27T06:32:58;100989.66;;;3.93;76.46
26657;BME280;14279;50.010;8.260;2023-01-27T06:35:23;100992.16;;;4.04;76.30
26657;BME280;14279;50.010;8.260;2023-01-27T06:37:52;101005.81;;;4.11;76.55
26657;BME280;14279;50.010;8.260;2023-01-27T06:40:24;101003.22;;;4.14;76.15
26657;BME280;14279;50.010;8.260;2023-01-27T06:42:49;101001.59;;;4.05;76.05
26657;BME280;14279;50.010;8.260;2023-01-27T06:45:14;101006.00;;;3.94;76.21
26657;BME280;14279;50.010;8.260;2023-01-27T06:47:40;101011.81;;;4.16;75.90
26657;BME280;14279;50.010;8.260;2023-01-27T06:50:07;101015.13;;;4.30;75.69
26657;BME280;14279;50.010;8.260;2023-01-27T06:52:33;101012.34;;;4.49;74.12
26657;BME280;14279;50.010;8.260;2023-01-27T06:54:58;101013.00;;;4.70;72.96
26657;BME280;14279;50.010;8.260;2023-01-27T06:57:24;101012.13;;;4.71;73.21
26657;BME280;14279;50.010;8.260;2023-01-27T06:59:49;101012.19;;;4.64;72.65
26657;BME280;14279;50.010;8.260;2023-01-27T07:02:14;101007.00;;;4.68;73.61
26657;BME280;14279;50.010;8.260;2023-01-27T07:04:41;101010.34;;;4.76;73.48
26657;BME280;14279;50.010;8.260;2023-01-27T07:07:07;101010.34;;;4.76;72.87
26657;BME280;14279;50.010;8.260;2023-01-27T07:09:40;101019.75;;;4.78;73.15
26657;BME280;14279;50.010;8.260;2023-01-27T07:12:05;101013.00;;;4.66;72.81
26657;BME280;14279;50.010;8.260;2023-01-27T07:14:31;101024.22;;;4.64;73.35
26657;BME280;14279;50.010;8.260;2023-01-27T07:16:56;101032.81;;;4.66;73.22
26657;BME280;14279;50.010;8.260;2023-01-27T07:19:21;101032.00;;;4.61;73.75
26657;BME280;14279;50.010;8.260;2023-01-27T07:21:46;101028.53;;;4.63;73.78
26657;BME280;14279;50.010;8.260;2023-01-27T07:24:11;101025.03;;;4.69;73.14
26657;BME280;14279;50.010;8.260;2023-01-27T07:26:37;101025.78;;;4.79;73.17
26657;BME280;14279;50.010;8.260;2023-01-27T07:29:02;101027.66;;;4.64;73.24
26657;BME280;14279;50.010;8.260;2023-01-27T07:31:51;101038.06;;;4.54;72.98
26657;BME280;14279;50.010;8.260;2023-01-27T07:34:16;101033.22;;;4.24;74.24
26657;BME280;14279;50.010;8.260;2023-01-27T07:36:41;101043.50;;;4.26;74.33
26657;BME280;14279;50.010;8.260;2023-01-27T07:39:07;101038.50;;;4.09;75.10
26657;BME280;14279;50.010;8.260;2023-01-27T07:41:32;101034.09;;;4.20;74.38
26657;BME280;14279;50.010;8.260;2023-01-27T07:43:58;101038.38;;;4.21;74.29
26657;BME280;14279;50.010;8.260;2023-01-27T07:46:23;101038.56;;;3.98;74.70
26657;BME280;14279;50.010;8.260;2023-01-27T07:48:48;101036.88;;;3.95;75.17
26657;BME280;14279;50.010;8.260;2023-01-27T07:51:14;101045.56;;;3.83;75.56
26657;BME280;14279;50.010;8.260;2023-01-27T07:53:39;101039.47;;;3.92;75.24
26657;BME280;14279;50.010;8.260;2023-01-27T07:56:05;101047.28;;;3.84;75.46
26657;BME280;14279;50.010;8.260;2023-01-27T07:58:36;101052.22;;;4.11;75.18
26657;BME280;14279;50.010;8.260;2023-01-27T08:01:07;101048.72;;;4.18;74.99
26657;BME280;14279;50.010;8.260;2023-01-27T08:03:33;101051.91;;;4.45;73.78
26657;BME280;14279;50.010;8.260;2023-01-27T08:06:03;101051.97;;;4.39;74.19
26657;BME280;14279;50.010;8.260;2023-01-27T08:08:28;101049.22;;;4.56;73.52
26657;BME280;14279;50.010;8.260;2023-01-27T08:10:58;101049.25;;;4.57;74.31
26657;BME280;14279;50.010;8.260;2023-01-27T08:13:23;101058.72;;;4.55;73.46
26657;BME280;14279;50.010;8.260;2023-01-27T08:15:54;101065.69;;;4.45;74.23
26657;BME280;14279;50.010;8.260;2023-01-27T08:18:19;101067.38;;;4.48;74.40
26657;BME280;14279;50.010;8.260;2023-01-27T08:20:45;101062.94;;;4.61;73.43
26657;BME280;14279;50.010;8.260;2023-01-27T08:23:10;101064.69;;;4.59;73.47
26657;BME280;14279;50.010;8.260;2023-01-27T08:25:35;101060.34;;;4.64;73.62
26657;BME280;14279;50.010;8.260;2023-01-27T08:28:00;101063.81;;;4.58;73.50
26657;BME280;14279;50.010;8.260;2023-01-27T08:30:26;101068.06;;;4.62;73.57
26657;BME280;14279;50.010;8.260;2023-01-27T08:32:51;101064.59;;;4.68;73.61
26657;BME280;14279;50.010;8.260;2023-01-27T08:35:16;101073.19;;;4.65;73.37
26657;BME280;14279;50.010;8.260;2023-01-27T08:37:42;101081.72;;;4.72;73.60
26657;BME280;14279;50.010;8.260;2023-01-27T08:40:08;101074.06;;;4.66;73.57
26657;BME280;14279;50.010;8.260;2023-01-27T08:42:33;101076.50;;;4.78;73.16
26657;BME280;14279;50.010;8.260;2023-01-27T08:44:58;101078.31;;;4.72;73.63
26657;BME280;14279;50.010;8.260;2023-01-27T08:47:24;101089.47;;;4.72;73.04
26657;BME280;14279;50.010;8.260;2023-01-27T08:49:49;101084.38;;;4.64;72.90
26657;BME280;14279;50.010;8.260;2023-01-27T08:52:15;101089.59;;;4.58;73.50
26657;BME280;14279;50.010;8.260;2023-01-27T08:54:43;101091.28;;;4.64;73.70
26657;BME280;14279;50.010;8.260;2023-01-27T08:57:09;101096.50;;;4.58;73.10
26657;BME280;14279;50.010;8.260;2023-01-27T08:59:34;101105.16;;;4.52;74.05
26657;BME280;14279;50.010;8.260;2023-01-27T09:01:59;101099.13;;;4.51;73.37
26657;BME280;14279;50.010;8.260;2023-01-27T09:04:24;101103.44;;;4.49;73.26
26657;BME280;14279;50.010;8.260;2023-01-27T09:06:50;101099.97;;;4.54;73.50
26657;BME280;14279;50.010;8.260;2023-01-27T09:09:15;101110.25;;;4.57;73.74
26657;BME280;14279;50.010;8.260;2023-01-27T09:11:43;101107.78;;;4.46;73.76
26657;BME280;14279;50.010;8.260;2023-01-27T09:14:10;101112.88;;;4.52;74.00
26657;BME280;14279;50.010;8.260;2023-01-27T09:16:35;101121.38;;;4.63;74.05
26657;BME280;14279;50.010;8.260;2023-01-27T09:19:01;101120.56;;;4.57;73.76
26657;BME280;14279;50.010;8.260;2023-01-27T09:21:26;101126.63;;;4.53;74.47
26657;BME280;14279;50.010;8.260;2023-01-27T09:23:51;101131.66;;;4.68;74.00
26657;BME280;14279;50.010;8.260;2023-01-27T09:26:17;101127.53;;;4.47;74.28
26657;BME280;14279;50.010;8.260;2023-01-27T09:28:42;101132.75;;;4.42;74.22
26657;BME280;14279;50.010;8.260;2023-01-27T09:31:07;101128.31;;;4.54;74.51
26657;BME280;14279;50.010;8.260;2023-01-27T09:33:34;101126.72;;;4.39;74.36
26657;BME280;14279;50.010;8.260;2023-01-27T09:36:19;101129.28;;;4.45;74.61
26657;BME280;14279;50.010;8.260;2023-01-27T09:38:57;101135.31;;;4.42;74.10
26657;BME280;14279;50.010;8.260;2023-01-27T09:47:46;101129.34;;;4.37;74.42
26657;BME280;14279;50.010;8.260;2023-01-27T09:50:41;101133.50;;;4.50;74.19
26657;BME280;14279;50.010;8.260;2023-01-27T09:55:58;101136.16;;;4.44;74.80
26657;BME280;14279;50.010;8.260;2023-01-27T09:58:51;101133.69;;;4.26;75.38
26657;BME280;14279;50.010;8.260;2023-01-27T10:06:50;101119.94;;;4.31;74.92
26657;BME280;14279;50.010;8.260;2023-01-27T10:09:40;101132.69;;;4.47;74.38
26657;BME280;14279;50.010;8.260;2023-01-27T10:17:36;101132.78;;;4.36;73.97
26657;BME280;14279;50.010;8.260;2023-01-27T10:20:16;101133.59;;;4.44;73.71
26657;BME280;14279;50.010;8.260;2023-01-27T10:25:20;101120.75;;;4.35;73.87
26657;BME280;14279;50.010;8.260;2023-01-27T10:27:55;101118.22;;;4.29;74.20
26657;BME280;14279;50.010;8.260;2023-01-27T10:30:32;101128.31;;;4.54;73.83
26657;BME280;14279;50.010;8.260;2023-01-27T10:35:57;101119.53;;;4.78;72.90
26657;BME280;14279;50.010;8.260;2023-01-27T10:50:00;101116.91;;;4.79;72.91
26657;BME280;14279;50.010;8.260;2023-01-27T10:52:39;101126.38;;;4.77;72.49
26657;BME280;14279;50.010;8.260;2023-01-27T10:55:18;101123.75;;;4.82;72.10
26657;BME280;14279;50.010;8.260;2023-01-27T10:57:58;101116.16;;;4.70;72.32
26657;BME280;14279;50.010;8.260;2023-01-27T11:03:03;101129.19;;;4.53;73.46
26657;BME280;14279;50.010;8.260;2023-01-27T11:05:34;101128.00;;;4.89;72.37
26657;BME280;14279;50.010;8.260;2023-01-27T11:08:04;101127.94;;;4.94;72.50
26657;BME280;14279;50.010;8.260;2023-01-27T11:10:43;101124.69;;;4.78;72.66
26657;BME280;14279;50.010;8.260;2023-01-27T11:13:31;101120.19;;;4.94;72.26
26657;BME280;14279;50.010;8.260;2023-01-27T11:15:57;101126.34;;;4.82;71.83
26657;BME280;14279;50.010;8.260;2023-01-27T11:18:27;101122.81;;;4.92;71.77
26657;BME280;14279;50.010;8.260;2023-01-27T11:20:55;101118.88;;;4.57;72.22
26657;BME280;14279;50.010;8.260;2023-01-27T11:23:26;101129.06;;;4.66;72.16
26657;BME280;14279;50.010;8.260;2023-01-27T11:32:10;101121.81;;;5.04;71.47
26657;BME280;14279;50.010;8.260;2023-01-27T11:37:27;101113.81;;;5.28;69.71
26657;BME280;14279;50.010;8.260;2023-01-27T11:39:54;101112.03;;;5.34;68.53
26657;BME280;14279;50.010;8.260;2023-01-27T11:42:20;101108.53;;;5.38;68.84
26657;BME280;14279;50.010;8.260;2023-01-27T11:44:46;101104.47;;;5.17;68.48
26657;BME280;14279;50.010;8.260;2023-01-27T11:47:27;101112.09;;;5.30;68.24
26657;BME280;14279;50.010;8.260;2023-01-27T11:49:55;101100.09;;;5.24;67.65
26657;BME280;14279;50.010;8.260;2023-01-27T11:52:22;101104.38;;;5.26;67.39
26657;BME280;14279;50.010;8.260;2023-01-27T11:55:09;101099.41;;;5.08;67.17
26657;BME280;14279;50.010;8.260;2023-01-27T11:57:44;101102.56;;;5.33;66.57
26657;BME280;14279;50.010;8.260;2023-01-27T12:03:20;101101.25;;;5.00;66.33
26657;BME280;14279;50.010;8.260;2023-01-27T12:05:53;101093.22;;;5.23;66.66
26657;BME280;14279;50.010;8.260;2023-01-27T12:08:35;101094.22;;;5.13;65.86
26657;BME280;14279;50.010;8.260;2023-01-27T12:11:27;101099.34;;;5.14;66.36
26657;BME280;14279;50.010;8.260;2023-01-27T12:13:53;101097.34;;;5.38;66.26
26657;BME280;14279;50.010;8.260;2023-01-27T12:16:19;101100.22;;;5.15;66.17
26657;BME280;14279;50.010;8.260;2023-01-27T12:18:59;101088.84;;;5.28;66.22
26657;BME280;14279;50.010;8.260;2023-01-27T12:21:36;101098.16;;;5.40;65.84
26657;BME280;14279;50.010;8.260;2023-01-27T12:24:03;101090.50;;;5.35;66.47
26657;BME280;14279;50.010;8.260;2023-01-27T12:26:35;101088.59;;;5.48;66.33
26657;BME280;14279;50.010;8.260;2023-01-27T12:29:15;101087.13;;;5.29;66.00
26657;BME280;14279;50.010;8.260;2023-01-27T12:31:46;101093.31;;;5.17;66.16
26657;BME280;14279;50.010;8.260;2023-01-27T12:34:27;101081.22;;;5.19;66.55
26657;BME280;14279;50.010;8.260;2023-01-27T12:36:54;101077.91;;;5.06;67.61
26657;BME280;14279;50.010;8.260;2023-01-27T12:39:29;101079.41;;;5.27;66.53
26657;BME280;14279;50.010;8.260;2023-01-27T12:41:56;101067.91;;;5.50;66.14
26657;BME280;14279;50.010;8.260;2023-01-27T12:44:21;101066.19;;;5.50;66.03
26657;BME280;14279;50.010;8.260;2023-01-27T12:47:18;101068.63;;;5.60;66.03
26657;BME280;14279;50.010;8.260;2023-01-27T12:49:45;101060.03;;;5.59;65.85
26657;BME280;14279;50.010;8.260;2023-01-27T12:52:18;101063.50;;;5.56;66.43
26657;BME280;14279;50.010;8.260;2023-01-27T12:54:44;101068.53;;;5.67;66.80
26657;BME280;14279;50.010;8.260;2023-01-27T12:57:13;101064.53;;;5.45;66.46
26657;BME280;14279;50.010;8.260;2023-01-27T12:59:55;101063.69;;;5.44;66.70
26657;BME280;14279;50.010;8.260;2023-01-27T13:02:24;101061.00;;;5.53;67.04
26657;BME280;14279;50.010;8.260;2023-01-27T13:04:58;101058.59;;;5.39;67.25
26657;BME280;14279;50.010;8.260;2023-01-27T13:07:46;101066.34;;;5.38;67.42
26657;BME280;14279;50.010;8.260;2023-01-27T13:10:19;101063.84;;;5.33;68.04
26657;BME280;14279;50.010;8.260;2023-01-27T13:12:54;101072.16;;;5.54;67.75
26657;BME280;14279;50.010;8.260;2023-01-27T13:15:21;101064.44;;;5.51;68.04
26657;BME280;14279;50.010;8.260;2023-01-27T13:17:57;101065.09;;;5.67;67.71
26657;BME280;14279;50.010;8.260;2023-01-27T13:20:39;101067.00;;;5.54;67.63
26657;BME280;14279;50.010;8.260;2023-01-27T13:23:10;101075.50;;;5.62;68.13
26657;BME280;14279;50.010;8.260;2023-01-27T13:25:45;101076.38;;;5.61;68.03
26657;BME280;14279;50.010;8.260;2023-01-27T13:28:20;101082.63;;;5.43;68.21
26657;BME280;14279;50.010;8.260;2023-01-27T13:30:50;101077.28;;;5.55;68.04
26657;BME280;14279;50.010;8.260;2023-01-27T13:35:55;101085.00;;;5.59;67.37
26657;BME280;14279;50.010;8.260;2023-01-27T13:39:10;101087.84;;;5.40;67.29
26657;BME280;14279;50.010;8.260;2023-01-27T13:41:19;101088.94;;;5.20;67.77
26657;BME280;14279;50.010;8.260;2023-01-27T13:43:54;101089.94;;;5.07;68.31
26657;BME280;14279;50.010;8.260;2023-01-27T13:46:26;101088.03;;;5.24;67.67
26657;BME280;14279;50.010;8.260;2023-01-27T13:49:03;101094.00;;;5.28;67.80
26657;BME280;14279;50.010;8.260;2023-01-27T13:51:30;101096.44;;;5.42;67.46
26657;BME280;14279;50.010;8.260;2023-01-27T13:54:03;101095.69;;;5.31;67.63
26657;BME280;14279;50.010;8.260;2023-01-27T14:07:38;101103.53;;;5.24;67.57
26657;BME280;14279;50.010;8.260;2023-01-27T14:10:14;101105.22;;;5.27;67.56
26657;BME280;14279;50.010;8.260;2023-01-27T14:13:06;101102.22;;;5.61;66.92
26657;BME280;14279;50.010;8.260;2023-01-27T14:15:43;101108.56;;;5.35;67.24
26657;BME280;14279;50.010;8.260;2023-01-27T14:26:57;101111.53;;;5.01;68.81
26657;BME280;14279;50.010;8.260;2023-01-27T14:29:44;101109.53;;;5.26;68.58
26657;BME280;14279;50.010;8.260;2023-01-27T14:32:24;101106.78;;;5.39;68.46